Aviation Digital Data Service (ADDS)

Output produced by METARs form (2224 UTC 23 March 2019)
found at http://www.aviationweather.gov/metar/data/
 
METAR text: DRRM 231800Z 36002KT CAVOK 37/04 Q1008
Conditions at: DRRM (MARADI , NE) observed 1800 UTC 23 March 2019
Temperature: 37.0°C (99°F)
Dewpoint: 4.0°C (39°F) [RH = 13%]
Pressure (altimeter): 29.76 inches Hg (1008.0 mb)
Winds: from the N (360 degrees) at 2 MPH (2 knots; 1.0 m/s)
Visibility: 6 or more miles (10+ km)
Ceiling: ceiling and visibility are OK
Clouds: unknown
Weather: no significant weather observed at this time

METAR text: DRRM 231700Z 04002KT CAVOK 39/05 Q1007
Conditions at: DRRM (MARADI , NE) observed 1700 UTC 23 March 2019
Temperature: 39.0°C (102°F)
Dewpoint: 5.0°C (41°F) [RH = 12%]
Pressure (altimeter): 29.73 inches Hg (1007.0 mb)
Winds: from the NE (40 degrees) at 2 MPH (2 knots; 1.0 m/s)
Visibility: 6 or more miles (10+ km)
Ceiling: ceiling and visibility are OK
Clouds: unknown
Weather: no significant weather observed at this time

METAR text: DRRM 231600Z 04002KT CAVOK 40/04 Q1007
Conditions at: DRRM (MARADI , NE) observed 1600 UTC 23 March 2019
Temperature: 40.0°C (104°F)
Dewpoint: 4.0°C (39°F) [RH = 11%]
Pressure (altimeter): 29.73 inches Hg (1007.0 mb)
Winds: from the NE (40 degrees) at 2 MPH (2 knots; 1.0 m/s)
Visibility: 6 or more miles (10+ km)
Ceiling: ceiling and visibility are OK
Clouds: unknown
Weather: no significant weather observed at this time

METAR text: DRRM 231500Z 32008KT CAVOK 41/01 Q1008
Conditions at: DRRM (MARADI , NE) observed 1500 UTC 23 March 2019
Temperature: 41.0°C (106°F)
Dewpoint: 1.0°C (34°F) [RH =  8%]
Pressure (altimeter): 29.76 inches Hg (1008.0 mb)
Winds: from the NW (320 degrees) at 9 MPH (8 knots; 4.1 m/s)
Visibility: 6 or more miles (10+ km)
Ceiling: ceiling and visibility are OK
Clouds: unknown
Weather: no significant weather observed at this time

METAR text: DRRM 231400Z 04006KT CAVOK 40/00 Q1008
Conditions at: DRRM (MARADI , NE) observed 1400 UTC 23 March 2019
Temperature: 40.0°C (104°F)
Dewpoint: 0.0°C (32°F) [RH =  8%]
Pressure (altimeter): 29.76 inches Hg (1008.0 mb)
Winds: from the NE (40 degrees) at 7 MPH (6 knots; 3.1 m/s)
Visibility: 6 or more miles (10+ km)
Ceiling: ceiling and visibility are OK
Clouds: unknown
Weather: no significant weather observed at this time

METAR text: DRRM 231300Z 20004KT CAVOK 40/00 Q1009
Conditions at: DRRM (MARADI , NE) observed 1300 UTC 23 March 2019
Temperature: 40.0°C (104°F)
Dewpoint: 0.0°C (32°F) [RH =  8%]
Pressure (altimeter): 29.79 inches Hg (1009.0 mb)
Winds: from the SSW (200 degrees) at 5 MPH (4 knots; 2.1 m/s)
Visibility: 6 or more miles (10+ km)
Ceiling: ceiling and visibility are OK
Clouds: unknown
Weather: no significant weather observed at this time

METAR text: DRRM 231200Z 10006KT CAVOK 39/M01 Q1010
Conditions at: DRRM (MARADI , NE) observed 1200 UTC 23 March 2019
Temperature: 39.0°C (102°F)
Dewpoint: -1.0°C (30°F) [RH =  8%]
Pressure (altimeter): 29.82 inches Hg (1010.0 mb)
Winds: from the E (100 degrees) at 7 MPH (6 knots; 3.1 m/s)
Visibility: 6 or more miles (10+ km)
Ceiling: ceiling and visibility are OK
Clouds: unknown
Weather: no significant weather observed at this time

METAR text: DRRM 231100Z 00000KT CAVOK 37/M04 Q1011
Conditions at: DRRM (MARADI , NE) observed 1100 UTC 23 March 2019
Temperature: 37.0°C (99°F)
Dewpoint: -4.0°C (25°F) [RH =  7%]
Pressure (altimeter): 29.85 inches Hg (1011.0 mb)
Winds: calm
Visibility: 6 or more miles (10+ km)
Ceiling: ceiling and visibility are OK
Clouds: unknown
Weather: no significant weather observed at this time

METAR text: DRRM 231000Z 08010KT CAVOK 34/M05 Q1012
Conditions at: DRRM (MARADI , NE) observed 1000 UTC 23 March 2019
Temperature: 34.0°C (93°F)
Dewpoint: -5.0°C (23°F) [RH =  8%]
Pressure (altimeter): 29.88 inches Hg (1012.0 mb)
Winds: from the E (80 degrees) at 12 MPH (10 knots; 5.1 m/s)
Visibility: 6 or more miles (10+ km)
Ceiling: ceiling and visibility are OK
Clouds: unknown
Weather: no significant weather observed at this time

METAR text: DRRM 230900Z 06008KT CAVOK 33/M07 Q1012
Conditions at: DRRM (MARADI , NE) observed 0900 UTC 23 March 2019
Temperature: 33.0°C (91°F)
Dewpoint: -7.0°C (19°F) [RH =  7%]
Pressure (altimeter): 29.88 inches Hg (1012.0 mb)
Winds: from the ENE (60 degrees) at 9 MPH (8 knots; 4.1 m/s)
Visibility: 6 or more miles (10+ km)
Ceiling: ceiling and visibility are OK
Clouds: unknown
Weather: no significant weather observed at this time

METAR text: DRRM 230800Z 06008KT CAVOK 29/M04 Q1011
Conditions at: DRRM (MARADI , NE) observed 0800 UTC 23 March 2019
Temperature: 29.0°C (84°F)
Dewpoint: -4.0°C (25°F) [RH = 11%]
Pressure (altimeter): 29.85 inches Hg (1011.0 mb)
Winds: from the ENE (60 degrees) at 9 MPH (8 knots; 4.1 m/s)
Visibility: 6 or more miles (10+ km)
Ceiling: ceiling and visibility are OK
Clouds: unknown
Weather: no significant weather observed at this time

METAR text: DRRM 230700Z 04004KT CAVOK 25/01 Q1010
Conditions at: DRRM (MARADI , NE) observed 0700 UTC 23 March 2019
Temperature: 25.0°C (77°F)
Dewpoint: 1.0°C (34°F) [RH = 21%]
Pressure (altimeter): 29.82 inches Hg (1010.0 mb)
Winds: from the NE (40 degrees) at 5 MPH (4 knots; 2.1 m/s)
Visibility: 6 or more miles (10+ km)
Ceiling: ceiling and visibility are OK
Clouds: unknown
Weather: no significant weather observed at this time

METAR text: DRRM 230600Z 00000KT CAVOK 23/04 Q1010
Conditions at: DRRM (MARADI , NE) observed 0600 UTC 23 March 2019
Temperature: 23.0°C (73°F)
Dewpoint: 4.0°C (39°F) [RH = 29%]
Pressure (altimeter): 29.82 inches Hg (1010.0 mb)
Winds: calm
Visibility: 6 or more miles (10+ km)
Ceiling: ceiling and visibility are OK
Clouds: unknown
Weather: no significant weather observed at this time

METAR text: DRRM 221800Z 36002KT 8000 NSC 37/08 Q1006
Conditions at: DRRM (MARADI , NE) observed 1800 UTC 22 March 2019
Temperature: 37.0°C (99°F)
Dewpoint: 8.0°C (46°F) [RH = 17%]
Pressure (altimeter): 29.70 inches Hg (1006.0 mb)
Winds: from the N (360 degrees) at 2 MPH (2 knots; 1.0 m/s)
Visibility: 5 miles ( 8 km)
Ceiling: at least 12,000 feet AGL
Clouds: sky clear below 12,000 feet AGL
Weather: no significant weather observed at this time

METAR text: DRRM 221700Z 36004KT 8000 NSC 40/04 Q1006
Conditions at: DRRM (MARADI , NE) observed 1700 UTC 22 March 2019
Temperature: 40.0°C (104°F)
Dewpoint: 4.0°C (39°F) [RH = 11%]
Pressure (altimeter): 29.70 inches Hg (1006.0 mb)
Winds: from the N (360 degrees) at 5 MPH (4 knots; 2.1 m/s)
Visibility: 5 miles ( 8 km)
Ceiling: at least 12,000 feet AGL
Clouds: sky clear below 12,000 feet AGL
Weather: no significant weather observed at this time

METAR text: DRRM 221600Z 30006KT CAVOK 41/03 Q1007
Conditions at: DRRM (MARADI , NE) observed 1600 UTC 22 March 2019
Temperature: 41.0°C (106°F)
Dewpoint: 3.0°C (37°F) [RH = 10%]
Pressure (altimeter): 29.73 inches Hg (1007.0 mb)
Winds: from the WNW (300 degrees) at 7 MPH (6 knots; 3.1 m/s)
Visibility: 6 or more miles (10+ km)
Ceiling: ceiling and visibility are OK
Clouds: unknown
Weather: no significant weather observed at this time

METAR text: DRRM 221500Z 34008KT CAVOK 41/05 Q1006
Conditions at: DRRM (MARADI , NE) observed 1500 UTC 22 March 2019
Temperature: 41.0°C (106°F)
Dewpoint: 5.0°C (41°F) [RH = 11%]
Pressure (altimeter): 29.70 inches Hg (1006.0 mb)
Winds: from the NNW (340 degrees) at 9 MPH (8 knots; 4.1 m/s)
Visibility: 6 or more miles (10+ km)
Ceiling: ceiling and visibility are OK
Clouds: unknown
Weather: no significant weather observed at this time